KFSI/FSI METAR and TAF weather

Enter ICAO airport designator
Station Type Date Time Source
KFSI METAR 2020/07/12 03:56 UTC NOAA

KFSI 120356Z AUTO 16008KT 10SM CLR 30/24 A2988 RMK AO2 SLP105 T03030242 $


Station Type Date Time Source
KFSI Decoded METAR 2020/07/12 03:56 UTC NOAA

Fort Sill, OK, United States (KFSI) 34-36N 098-24W 360M
Jul 11, 2020 - 11:56 PM EDT / 2020.07.12 0356 UTC
Wind: from the SSE (160 degrees) at 9 MPH (8 KT):0
Visibility: 10 mile(s):0
Sky conditions: clear
Temperature: 86.5 F (30.3 C)
Heat index: 95.9 F (35.5 C):1
Dew Point: 75.6 F (24.2 C)
Relative Humidity: 69%
Pressure (altimeter): 29.88 in. Hg (1011 hPa)
ob: KFSI 120356Z AUTO 16008KT 10SM CLR 30/24 A2988 RMK AO2 SLP105 T03030242
cycle: 4

Station Type Date Time Source
KFSI TAF 2020/07/10 21:09 UTC NOAA

TAF TAF KFSI 102100Z 1021/1203 15012G18KT 9999 SKC QNH2990INS
BECMG 1107/1108 VRB06KT 9999 SKC QNH2993INS
BECMG 1116/1117 24012G18KT 9999 SKC QNH2985INS TX40/1120Z TN25/1112Z LAST NO
AMDS AFT 1023 NEXT 1313

Example: see airport list